sensor_id;sensor_type;location;lat;lon;timestamp;P1;durP1;ratioP1;P2;durP2;ratioP2
43124;SDS011;49182;50.788;7.318;2023-10-19T00:04:25;10.38;;;5.70;;
43124;SDS011;49182;50.788;7.318;2023-10-19T00:09:28;7.35;;;5.43;;
43124;SDS011;49182;50.788;7.318;2023-10-19T00:14:30;6.63;;;5.05;;
43124;SDS011;49182;50.788;7.318;2023-10-19T00:19:32;7.57;;;5.28;;
43124;SDS011;49182;50.788;7.318;2023-10-19T00:24:36;8.88;;;5.95;;
43124;SDS011;49182;50.788;7.318;2023-10-19T00:29:37;9.90;;;5.22;;
43124;SDS011;49182;50.788;7.318;2023-10-19T00:34:39;8.27;;;5.30;;
43124;SDS011;49182;50.788;7.318;2023-10-19T00:39:42;8.00;;;5.47;;
43124;SDS011;49182;50.788;7.318;2023-10-19T00:44:44;7.93;;;5.07;;
43124;SDS011;49182;50.788;7.318;2023-10-19T00:49:46;7.97;;;5.40;;
43124;SDS011;49182;50.788;7.318;2023-10-19T00:54:49;7.28;;;6.35;;
43124;SDS011;49182;50.788;7.318;2023-10-19T00:59:53;9.10;;;5.38;;
43124;SDS011;49182;50.788;7.318;2023-10-19T01:04:56;9.00;;;4.68;;
43124;SDS011;49182;50.788;7.318;2023-10-19T01:10:00;6.95;;;5.10;;
43124;SDS011;49182;50.788;7.318;2023-10-19T01:15:08;7.00;;;4.68;;
43124;SDS011;49182;50.788;7.318;2023-10-19T01:20:11;7.45;;;4.93;;
43124;SDS011;49182;50.788;7.318;2023-10-19T01:25:15;9.80;;;5.88;;
43124;SDS011;49182;50.788;7.318;2023-10-19T01:30:17;9.35;;;6.65;;
43124;SDS011;49182;50.788;7.318;2023-10-19T01:35:19;6.82;;;4.72;;
43124;SDS011;49182;50.788;7.318;2023-10-19T01:40:22;8.38;;;5.93;;
43124;SDS011;49182;50.788;7.318;2023-10-19T01:45:24;8.73;;;6.07;;
43124;SDS011;49182;50.788;7.318;2023-10-19T01:50:25;6.95;;;5.35;;
43124;SDS011;49182;50.788;7.318;2023-10-19T01:55:30;7.47;;;5.45;;
43124;SDS011;49182;50.788;7.318;2023-10-19T02:00:38;5.35;;;4.50;;
43124;SDS011;49182;50.788;7.318;2023-10-19T02:05:40;7.20;;;5.13;;
43124;SDS011;49182;50.788;7.318;2023-10-19T02:10:46;7.40;;;5.30;;
43124;SDS011;49182;50.788;7.318;2023-10-19T02:15:48;7.55;;;5.25;;
43124;SDS011;49182;50.788;7.318;2023-10-19T02:20:50;7.07;;;4.25;;
43124;SDS011;49182;50.788;7.318;2023-10-19T02:25:54;8.23;;;6.38;;
43124;SDS011;49182;50.788;7.318;2023-10-19T02:30:56;7.72;;;5.30;;
43124;SDS011;49182;50.788;7.318;2023-10-19T02:35:59;8.05;;;4.85;;
43124;SDS011;49182;50.788;7.318;2023-10-19T02:41:02;5.85;;;4.65;;
43124;SDS011;49182;50.788;7.318;2023-10-19T02:46:04;6.57;;;5.00;;
43124;SDS011;49182;50.788;7.318;2023-10-19T02:51:06;9.07;;;5.78;;
43124;SDS011;49182;50.788;7.318;2023-10-19T02:56:13;7.15;;;5.43;;
43124;SDS011;49182;50.788;7.318;2023-10-19T03:01:17;8.00;;;5.05;;
43124;SDS011;49182;50.788;7.318;2023-10-19T03:06:20;7.57;;;5.38;;
43124;SDS011;49182;50.788;7.318;2023-10-19T03:11:24;6.82;;;5.10;;
43124;SDS011;49182;50.788;7.318;2023-10-19T03:16:26;6.45;;;5.10;;
43124;SDS011;49182;50.788;7.318;2023-10-19T03:21:27;8.32;;;6.07;;
43124;SDS011;49182;50.788;7.318;2023-10-19T03:26:31;6.35;;;4.20;;
43124;SDS011;49182;50.788;7.318;2023-10-19T03:31:33;7.47;;;5.53;;
43124;SDS011;49182;50.788;7.318;2023-10-19T03:36:35;8.02;;;5.32;;
43124;SDS011;49182;50.788;7.318;2023-10-19T03:41:38;7.55;;;5.80;;
43124;SDS011;49182;50.788;7.318;2023-10-19T03:46:42;8.38;;;5.90;;
43124;SDS011;49182;50.788;7.318;2023-10-19T03:51:44;8.45;;;5.38;;
43124;SDS011;49182;50.788;7.318;2023-10-19T03:56:47;10.77;;;5.65;;
43124;SDS011;49182;50.788;7.318;2023-10-19T04:01:50;7.38;;;4.90;;
43124;SDS011;49182;50.788;7.318;2023-10-19T04:06:51;8.45;;;5.70;;
43124;SDS011;49182;50.788;7.318;2023-10-19T04:11:54;8.23;;;5.63;;
43124;SDS011;49182;50.788;7.318;2023-10-19T04:16:56;9.50;;;5.78;;
43124;SDS011;49182;50.788;7.318;2023-10-19T04:21:58;7.47;;;5.00;;
43124;SDS011;49182;50.788;7.318;2023-10-19T04:27:01;13.35;;;5.75;;
43124;SDS011;49182;50.788;7.318;2023-10-19T04:32:03;8.20;;;5.53;;
43124;SDS011;49182;50.788;7.318;2023-10-19T04:37:05;11.52;;;5.85;;
43124;SDS011;49182;50.788;7.318;2023-10-19T04:42:08;8.80;;;5.10;;
43124;SDS011;49182;50.788;7.318;2023-10-19T04:47:10;11.30;;;5.88;;
43124;SDS011;49182;50.788;7.318;2023-10-19T04:52:12;6.95;;;4.85;;
43124;SDS011;49182;50.788;7.318;2023-10-19T04:57:15;6.95;;;5.25;;
43124;SDS011;49182;50.788;7.318;2023-10-19T05:02:17;7.72;;;4.93;;
43124;SDS011;49182;50.788;7.318;2023-10-19T05:07:18;8.63;;;5.43;;
43124;SDS011;49182;50.788;7.318;2023-10-19T05:12:22;10.85;;;5.18;;
43124;SDS011;49182;50.788;7.318;2023-10-19T05:17:23;8.82;;;5.75;;
43124;SDS011;49182;50.788;7.318;2023-10-19T05:22:25;11.82;;;5.57;;
43124;SDS011;49182;50.788;7.318;2023-10-19T05:27:28;7.18;;;4.50;;
43124;SDS011;49182;50.788;7.318;2023-10-19T05:32:30;7.65;;;5.45;;
43124;SDS011;49182;50.788;7.318;2023-10-19T05:37:32;15.48;;;6.43;;
43124;SDS011;49182;50.788;7.318;2023-10-19T05:42:35;9.80;;;6.18;;
43124;SDS011;49182;50.788;7.318;2023-10-19T05:47:36;9.07;;;6.05;;
43124;SDS011;49182;50.788;7.318;2023-10-19T05:52:38;9.50;;;6.43;;
43124;SDS011;49182;50.788;7.318;2023-10-19T05:57:41;12.35;;;6.78;;
43124;SDS011;49182;50.788;7.318;2023-10-19T06:02:44;9.75;;;6.07;;
43124;SDS011;49182;50.788;7.318;2023-10-19T06:07:48;12.75;;;7.00;;
43124;SDS011;49182;50.788;7.318;2023-10-19T06:12:51;11.43;;;7.75;;
43124;SDS011;49182;50.788;7.318;2023-10-19T06:17:53;6.82;;;4.38;;
43124;SDS011;49182;50.788;7.318;2023-10-19T06:22:55;13.25;;;7.32;;
43124;SDS011;49182;50.788;7.318;2023-10-19T06:27:59;7.93;;;6.47;;
43124;SDS011;49182;50.788;7.318;2023-10-19T06:33:01;7.25;;;5.22;;
43124;SDS011;49182;50.788;7.318;2023-10-19T06:43:07;7.93;;;4.97;;
43124;SDS011;49182;50.788;7.318;2023-10-19T06:48:09;6.38;;;4.88;;
43124;SDS011;49182;50.788;7.318;2023-10-19T06:53:10;7.35;;;5.32;;
43124;SDS011;49182;50.788;7.318;2023-10-19T06:58:13;6.82;;;4.60;;
43124;SDS011;49182;50.788;7.318;2023-10-19T07:03:15;7.70;;;6.05;;
43124;SDS011;49182;50.788;7.318;2023-10-19T07:08:17;7.50;;;5.50;;
43124;SDS011;49182;50.788;7.318;2023-10-19T07:13:20;13.52;;;7.47;;
43124;SDS011;49182;50.788;7.318;2023-10-19T07:18:22;8.13;;;5.65;;
43124;SDS011;49182;50.788;7.318;2023-10-19T07:23:23;6.63;;;5.18;;
43124;SDS011;49182;50.788;7.318;2023-10-19T07:28:26;8.95;;;4.35;;
43124;SDS011;49182;50.788;7.318;2023-10-19T07:33:28;8.40;;;5.90;;
43124;SDS011;49182;50.788;7.318;2023-10-19T07:38:30;9.18;;;5.65;;
43124;SDS011;49182;50.788;7.318;2023-10-19T07:43:34;7.60;;;5.22;;
43124;SDS011;49182;50.788;7.318;2023-10-19T07:48:36;7.30;;;5.25;;
43124;SDS011;49182;50.788;7.318;2023-10-19T07:53:37;9.23;;;5.45;;
43124;SDS011;49182;50.788;7.318;2023-10-19T07:58:40;8.35;;;5.75;;
43124;SDS011;49182;50.788;7.318;2023-10-19T08:03:42;10.32;;;4.95;;
43124;SDS011;49182;50.788;7.318;2023-10-19T08:08:44;9.55;;;5.32;;
43124;SDS011;49182;50.788;7.318;2023-10-19T08:13:47;7.88;;;5.50;;
43124;SDS011;49182;50.788;7.318;2023-10-19T08:18:49;8.18;;;5.70;;
43124;SDS011;49182;50.788;7.318;2023-10-19T08:23:50;11.90;;;5.18;;
43124;SDS011;49182;50.788;7.318;2023-10-19T08:28:54;7.45;;;5.40;;
43124;SDS011;49182;50.788;7.318;2023-10-19T08:33:56;7.75;;;4.75;;
43124;SDS011;49182;50.788;7.318;2023-10-19T08:38:57;10.77;;;7.43;;
43124;SDS011;49182;50.788;7.318;2023-10-19T08:44:00;9.98;;;5.65;;
43124;SDS011;49182;50.788;7.318;2023-10-19T08:49:03;5.32;;;3.95;;
43124;SDS011;49182;50.788;7.318;2023-10-19T08:54:05;6.32;;;3.75;;
43124;SDS011;49182;50.788;7.318;2023-10-19T08:59:08;3.78;;;2.63;;
43124;SDS011;49182;50.788;7.318;2023-10-19T09:04:10;6.18;;;3.08;;
43124;SDS011;49182;50.788;7.318;2023-10-19T09:09:12;8.32;;;2.05;;
43124;SDS011;49182;50.788;7.318;2023-10-19T09:14:16;5.82;;;2.25;;
43124;SDS011;49182;50.788;7.318;2023-10-19T09:19:36;3.95;;;2.13;;
43124;SDS011;49182;50.788;7.318;2023-10-19T09:24:39;3.72;;;2.03;;
43124;SDS011;49182;50.788;7.318;2023-10-19T09:29:42;7.03;;;2.53;;
43124;SDS011;49182;50.788;7.318;2023-10-19T09:34:45;3.33;;;2.15;;
43124;SDS011;49182;50.788;7.318;2023-10-19T09:39:46;6.60;;;1.73;;
43124;SDS011;49182;50.788;7.318;2023-10-19T09:44:55;4.55;;;1.60;;
43124;SDS011;49182;50.788;7.318;2023-10-19T09:50:01;3.53;;;1.52;;
43124;SDS011;49182;50.788;7.318;2023-10-19T10:00:22;5.32;;;2.22;;
43124;SDS011;49182;50.788;7.318;2023-10-19T10:10:48;9.65;;;2.08;;
43124;SDS011;49182;50.788;7.318;2023-10-19T10:15:53;9.68;;;3.15;;
43124;SDS011;49182;50.788;7.318;2023-10-19T10:21:04;6.32;;;1.50;;
43124;SDS011;49182;50.788;7.318;2023-10-19T10:26:06;4.57;;;2.03;;
43124;SDS011;49182;50.788;7.318;2023-10-19T10:31:13;4.75;;;1.13;;
43124;SDS011;49182;50.788;7.318;2023-10-19T10:41:21;8.23;;;1.83;;
43124;SDS011;49182;50.788;7.318;2023-10-19T10:46:25;5.18;;;1.92;;
43124;SDS011;49182;50.788;7.318;2023-10-19T10:51:28;5.20;;;1.73;;
43124;SDS011;49182;50.788;7.318;2023-10-19T10:56:30;5.93;;;2.22;;
43124;SDS011;49182;50.788;7.318;2023-10-19T11:01:33;3.85;;;1.75;;
43124;SDS011;49182;50.788;7.318;2023-10-19T11:06:48;4.28;;;1.30;;
43124;SDS011;49182;50.788;7.318;2023-10-19T11:11:51;6.40;;;1.80;;
43124;SDS011;49182;50.788;7.318;2023-10-19T11:16:54;3.25;;;1.55;;
43124;SDS011;49182;50.788;7.318;2023-10-19T11:21:56;3.97;;;1.65;;
43124;SDS011;49182;50.788;7.318;2023-10-19T11:27:01;4.68;;;1.60;;
43124;SDS011;49182;50.788;7.318;2023-10-19T11:32:04;5.70;;;2.25;;
43124;SDS011;49182;50.788;7.318;2023-10-19T11:37:05;5.43;;;1.77;;
43124;SDS011;49182;50.788;7.318;2023-10-19T11:42:07;3.78;;;1.98;;
43124;SDS011;49182;50.788;7.318;2023-10-19T11:47:10;6.82;;;2.63;;
43124;SDS011;49182;50.788;7.318;2023-10-19T11:52:12;5.70;;;1.67;;
43124;SDS011;49182;50.788;7.318;2023-10-19T11:57:14;10.15;;;2.97;;
43124;SDS011;49182;50.788;7.318;2023-10-19T12:02:17;3.92;;;1.63;;
43124;SDS011;49182;50.788;7.318;2023-10-19T12:07:19;7.50;;;2.28;;
43124;SDS011;49182;50.788;7.318;2023-10-19T12:12:21;3.25;;;1.60;;
43124;SDS011;49182;50.788;7.318;2023-10-19T12:17:24;6.68;;;2.47;;
43124;SDS011;49182;50.788;7.318;2023-10-19T12:22:26;6.13;;;1.65;;
43124;SDS011;49182;50.788;7.318;2023-10-19T12:27:28;6.32;;;2.00;;
43124;SDS011;49182;50.788;7.318;2023-10-19T12:32:31;7.50;;;1.88;;
43124;SDS011;49182;50.788;7.318;2023-10-19T12:37:33;6.05;;;1.90;;
43124;SDS011;49182;50.788;7.318;2023-10-19T12:42:34;4.50;;;1.83;;
43124;SDS011;49182;50.788;7.318;2023-10-19T12:47:38;5.13;;;2.03;;
43124;SDS011;49182;50.788;7.318;2023-10-19T12:52:40;4.35;;;1.92;;
43124;SDS011;49182;50.788;7.318;2023-10-19T12:57:41;6.57;;;1.50;;
43124;SDS011;49182;50.788;7.318;2023-10-19T13:02:44;4.63;;;1.80;;
43124;SDS011;49182;50.788;7.318;2023-10-19T13:07:46;10.73;;;3.50;;
43124;SDS011;49182;50.788;7.318;2023-10-19T13:17:51;8.80;;;2.20;;
43124;SDS011;49182;50.788;7.318;2023-10-19T13:22:53;5.15;;;1.45;;
43124;SDS011;49182;50.788;7.318;2023-10-19T13:27:55;7.18;;;2.03;;
43124;SDS011;49182;50.788;7.318;2023-10-19T13:32:58;4.70;;;1.85;;
43124;SDS011;49182;50.788;7.318;2023-10-19T13:37:59;4.22;;;1.73;;
43124;SDS011;49182;50.788;7.318;2023-10-19T13:43:02;5.20;;;2.25;;
43124;SDS011;49182;50.788;7.318;2023-10-19T13:48:06;5.25;;;2.50;;
43124;SDS011;49182;50.788;7.318;2023-10-19T13:53:08;7.75;;;2.28;;
43124;SDS011;49182;50.788;7.318;2023-10-19T14:03:13;7.13;;;2.90;;
43124;SDS011;49182;50.788;7.318;2023-10-19T14:08:16;6.22;;;2.20;;
43124;SDS011;49182;50.788;7.318;2023-10-19T14:13:19;5.68;;;2.30;;
43124;SDS011;49182;50.788;7.318;2023-10-19T14:18:22;8.23;;;2.20;;
43124;SDS011;49182;50.788;7.318;2023-10-19T14:23:24;6.55;;;1.77;;
43124;SDS011;49182;50.788;7.318;2023-10-19T14:28:25;8.05;;;1.95;;
43124;SDS011;49182;50.788;7.318;2023-10-19T14:33:28;7.18;;;2.97;;
43124;SDS011;49182;50.788;7.318;2023-10-19T14:38:30;7.30;;;2.72;;
43124;SDS011;49182;50.788;7.318;2023-10-19T14:43:32;11.43;;;3.17;;
43124;SDS011;49182;50.788;7.318;2023-10-19T14:48:35;4.93;;;2.30;;
43124;SDS011;49182;50.788;7.318;2023-10-19T14:53:37;5.00;;;2.25;;
43124;SDS011;49182;50.788;7.318;2023-10-19T14:58:39;6.82;;;2.38;;
43124;SDS011;49182;50.788;7.318;2023-10-19T15:03:44;5.78;;;2.80;;
43124;SDS011;49182;50.788;7.318;2023-10-19T15:08:46;7.65;;;3.70;;
43124;SDS011;49182;50.788;7.318;2023-10-19T15:13:47;6.80;;;3.78;;
43124;SDS011;49182;50.788;7.318;2023-10-19T15:23:52;7.72;;;2.58;;
43124;SDS011;49182;50.788;7.318;2023-10-19T15:33:57;5.65;;;2.85;;
43124;SDS011;49182;50.788;7.318;2023-10-19T15:38:59;5.68;;;2.95;;
43124;SDS011;49182;50.788;7.318;2023-10-19T15:44:01;5.72;;;3.55;;
43124;SDS011;49182;50.788;7.318;2023-10-19T15:49:04;4.97;;;2.60;;
43124;SDS011;49182;50.788;7.318;2023-10-19T15:54:06;7.25;;;2.92;;
43124;SDS011;49182;50.788;7.318;2023-10-19T15:59:08;6.20;;;3.30;;
43124;SDS011;49182;50.788;7.318;2023-10-19T16:04:11;11.23;;;3.40;;
43124;SDS011;49182;50.788;7.318;2023-10-19T16:09:13;5.50;;;3.42;;
43124;SDS011;49182;50.788;7.318;2023-10-19T16:14:14;7.70;;;4.60;;
43124;SDS011;49182;50.788;7.318;2023-10-19T16:19:17;6.13;;;3.42;;
43124;SDS011;49182;50.788;7.318;2023-10-19T16:24:19;8.55;;;3.42;;
43124;SDS011;49182;50.788;7.318;2023-10-19T16:29:21;4.60;;;3.95;;
43124;SDS011;49182;50.788;7.318;2023-10-19T16:34:25;8.73;;;3.25;;
43124;SDS011;49182;50.788;7.318;2023-10-19T16:39:27;5.78;;;4.00;;
43124;SDS011;49182;50.788;7.318;2023-10-19T16:44:29;8.02;;;4.05;;
43124;SDS011;49182;50.788;7.318;2023-10-19T16:49:32;9.43;;;2.92;;
43124;SDS011;49182;50.788;7.318;2023-10-19T16:54:34;11.85;;;3.58;;
43124;SDS011;49182;50.788;7.318;2023-10-19T16:59:36;8.57;;;4.57;;
43124;SDS011;49182;50.788;7.318;2023-10-19T17:04:39;7.07;;;4.00;;
43124;SDS011;49182;50.788;7.318;2023-10-19T17:09:40;5.55;;;3.78;;
43124;SDS011;49182;50.788;7.318;2023-10-19T17:14:42;3.90;;;3.00;;
43124;SDS011;49182;50.788;7.318;2023-10-19T17:19:45;4.15;;;2.65;;
43124;SDS011;49182;50.788;7.318;2023-10-19T17:24:47;5.53;;;3.70;;
43124;SDS011;49182;50.788;7.318;2023-10-19T17:29:48;5.47;;;3.17;;
43124;SDS011;49182;50.788;7.318;2023-10-19T17:34:52;5.82;;;3.90;;
43124;SDS011;49182;50.788;7.318;2023-10-19T17:39:53;7.10;;;3.80;;
43124;SDS011;49182;50.788;7.318;2023-10-19T17:44:57;6.90;;;3.50;;
43124;SDS011;49182;50.788;7.318;2023-10-19T17:50:01;29.88;;;4.25;;
43124;SDS011;49182;50.788;7.318;2023-10-19T17:55:03;6.97;;;2.95;;
43124;SDS011;49182;50.788;7.318;2023-10-19T18:00:06;6.32;;;3.70;;
43124;SDS011;49182;50.788;7.318;2023-10-19T18:05:11;6.68;;;3.78;;
43124;SDS011;49182;50.788;7.318;2023-10-19T18:10:13;5.03;;;3.20;;
43124;SDS011;49182;50.788;7.318;2023-10-19T18:15:15;4.32;;;3.60;;
43124;SDS011;49182;50.788;7.318;2023-10-19T18:20:18;4.68;;;2.85;;
43124;SDS011;49182;50.788;7.318;2023-10-19T18:25:20;6.68;;;3.28;;
43124;SDS011;49182;50.788;7.318;2023-10-19T18:30:22;7.85;;;3.05;;
43124;SDS011;49182;50.788;7.318;2023-10-19T18:35:25;5.50;;;3.42;;
43124;SDS011;49182;50.788;7.318;2023-10-19T18:40:27;9.55;;;5.05;;
43124;SDS011;49182;50.788;7.318;2023-10-19T18:45:29;8.93;;;7.13;;
43124;SDS011;49182;50.788;7.318;2023-10-19T18:50:33;8.68;;;5.55;;
43124;SDS011;49182;50.788;7.318;2023-10-19T18:55:35;8.50;;;5.70;;
43124;SDS011;49182;50.788;7.318;2023-10-19T19:00:37;9.27;;;6.60;;
43124;SDS011;49182;50.788;7.318;2023-10-19T19:10:48;13.13;;;7.20;;
43124;SDS011;49182;50.788;7.318;2023-10-19T19:15:50;13.88;;;7.65;;
43124;SDS011;49182;50.788;7.318;2023-10-19T19:20:54;11.40;;;6.65;;
43124;SDS011;49182;50.788;7.318;2023-10-19T19:25:56;10.57;;;7.45;;
43124;SDS011;49182;50.788;7.318;2023-10-19T19:30:58;9.57;;;5.97;;
43124;SDS011;49182;50.788;7.318;2023-10-19T19:36:01;13.43;;;8.00;;
43124;SDS011;49182;50.788;7.318;2023-10-19T19:41:03;10.90;;;7.18;;
43124;SDS011;49182;50.788;7.318;2023-10-19T19:46:05;8.20;;;6.00;;
43124;SDS011;49182;50.788;7.318;2023-10-19T19:51:08;8.77;;;5.70;;
43124;SDS011;49182;50.788;7.318;2023-10-19T19:56:10;7.55;;;4.90;;
43124;SDS011;49182;50.788;7.318;2023-10-19T20:01:12;7.55;;;5.43;;
43124;SDS011;49182;50.788;7.318;2023-10-19T20:06:15;8.43;;;5.82;;
43124;SDS011;49182;50.788;7.318;2023-10-19T20:11:17;8.80;;;6.18;;
43124;SDS011;49182;50.788;7.318;2023-10-19T20:16:19;9.15;;;5.68;;
43124;SDS011;49182;50.788;7.318;2023-10-19T20:21:23;9.00;;;5.25;;
43124;SDS011;49182;50.788;7.318;2023-10-19T20:26:24;13.23;;;8.95;;
43124;SDS011;49182;50.788;7.318;2023-10-19T20:31:26;13.13;;;8.80;;
43124;SDS011;49182;50.788;7.318;2023-10-19T20:36:29;10.57;;;7.50;;
43124;SDS011;49182;50.788;7.318;2023-10-19T20:41:31;12.85;;;7.93;;
43124;SDS011;49182;50.788;7.318;2023-10-19T20:46:33;10.80;;;7.10;;
43124;SDS011;49182;50.788;7.318;2023-10-19T20:51:36;9.25;;;7.40;;
43124;SDS011;49182;50.788;7.318;2023-10-19T20:56:38;10.20;;;5.40;;
43124;SDS011;49182;50.788;7.318;2023-10-19T21:01:39;9.75;;;6.80;;
43124;SDS011;49182;50.788;7.318;2023-10-19T21:06:42;10.32;;;6.70;;
43124;SDS011;49182;50.788;7.318;2023-10-19T21:11:44;10.40;;;6.78;;
43124;SDS011;49182;50.788;7.318;2023-10-19T21:16:46;12.82;;;6.13;;
43124;SDS011;49182;50.788;7.318;2023-10-19T21:21:49;7.85;;;5.28;;
43124;SDS011;49182;50.788;7.318;2023-10-19T21:26:50;9.35;;;5.88;;
43124;SDS011;49182;50.788;7.318;2023-10-19T21:31:52;10.98;;;7.45;;
43124;SDS011;49182;50.788;7.318;2023-10-19T21:36:55;8.70;;;5.60;;
43124;SDS011;49182;50.788;7.318;2023-10-19T21:41:57;9.63;;;5.88;;
43124;SDS011;49182;50.788;7.318;2023-10-19T21:46:59;8.02;;;5.65;;
43124;SDS011;49182;50.788;7.318;2023-10-19T21:52:02;8.95;;;5.68;;
43124;SDS011;49182;50.788;7.318;2023-10-19T21:57:04;8.63;;;6.20;;
43124;SDS011;49182;50.788;7.318;2023-10-19T22:02:06;11.65;;;6.18;;
43124;SDS011;49182;50.788;7.318;2023-10-19T22:07:09;9.65;;;6.80;;
43124;SDS011;49182;50.788;7.318;2023-10-19T22:12:11;10.77;;;6.20;;
43124;SDS011;49182;50.788;7.318;2023-10-19T22:17:12;12.25;;;5.97;;
43124;SDS011;49182;50.788;7.318;2023-10-19T22:22:15;8.48;;;5.72;;
43124;SDS011;49182;50.788;7.318;2023-10-19T22:27:17;8.18;;;5.80;;
43124;SDS011;49182;50.788;7.318;2023-10-19T22:32:19;9.90;;;6.80;;
43124;SDS011;49182;50.788;7.318;2023-10-19T22:37:22;11.05;;;6.78;;
43124;SDS011;49182;50.788;7.318;2023-10-19T22:42:23;9.25;;;5.90;;
43124;SDS011;49182;50.788;7.318;2023-10-19T22:47:25;9.65;;;6.80;;
43124;SDS011;49182;50.788;7.318;2023-10-19T22:52:28;11.68;;;6.88;;
43124;SDS011;49182;50.788;7.318;2023-10-19T22:57:30;9.15;;;5.57;;
43124;SDS011;49182;50.788;7.318;2023-10-19T23:02:32;8.77;;;6.10;;
43124;SDS011;49182;50.788;7.318;2023-10-19T23:07:35;9.32;;;6.00;;
43124;SDS011;49182;50.788;7.318;2023-10-19T23:12:37;9.90;;;6.30;;
43124;SDS011;49182;50.788;7.318;2023-10-19T23:17:38;9.63;;;6.55;;
43124;SDS011;49182;50.788;7.318;2023-10-19T23:22:42;8.57;;;6.25;;
43124;SDS011;49182;50.788;7.318;2023-10-19T23:27:43;8.68;;;6.68;;
43124;SDS011;49182;50.788;7.318;2023-10-19T23:32:45;11.88;;;6.07;;
43124;SDS011;49182;50.788;7.318;2023-10-19T23:42:50;8.27;;;5.82;;
43124;SDS011;49182;50.788;7.318;2023-10-19T23:47:52;12.27;;;6.63;;
43124;SDS011;49182;50.788;7.318;2023-10-19T23:52:55;9.70;;;6.13;;
43124;SDS011;49182;50.788;7.318;2023-10-19T23:57:57;9.85;;;6.18;;
